sensor_id;sensor_type;location;lat;lon;timestamp;temperature;humidity
32612;DHT22;19030;49.478;8.986;2023-07-13T00:00:25;17.50;99.90
32612;DHT22;19030;49.478;8.986;2023-07-13T00:02:26;17.40;99.90
32612;DHT22;19030;49.478;8.986;2023-07-13T00:04:27;17.50;99.90
32612;DHT22;19030;49.478;8.986;2023-07-13T00:06:27;17.40;99.90
32612;DHT22;19030;49.478;8.986;2023-07-13T00:08:31;17.40;99.90
32612;DHT22;19030;49.478;8.986;2023-07-13T00:10:33;17.40;99.90
32612;DHT22;19030;49.478;8.986;2023-07-13T00:12:36;17.30;99.90
32612;DHT22;19030;49.478;8.986;2023-07-13T00:14:37;17.30;99.90
32612;DHT22;19030;49.478;8.986;2023-07-13T00:16:38;17.20;99.90
32612;DHT22;19030;49.478;8.986;2023-07-13T00:18:39;17.20;99.90
32612;DHT22;19030;49.478;8.986;2023-07-13T00:20:40;17.20;99.90
32612;DHT22;19030;49.478;8.986;2023-07-13T00:22:41;17.10;99.90
32612;DHT22;19030;49.478;8.986;2023-07-13T00:24:42;17.10;99.90
32612;DHT22;19030;49.478;8.986;2023-07-13T00:26:43;17.10;99.90
32612;DHT22;19030;49.478;8.986;2023-07-13T00:28:46;17.10;99.90
32612;DHT22;19030;49.478;8.986;2023-07-13T00:30:46;17.00;99.90
32612;DHT22;19030;49.478;8.986;2023-07-13T00:32:47;17.00;99.90
32612;DHT22;19030;49.478;8.986;2023-07-13T00:34:47;17.00;99.90
32612;DHT22;19030;49.478;8.986;2023-07-13T00:36:48;16.90;99.90
32612;DHT22;19030;49.478;8.986;2023-07-13T00:38:49;16.90;99.90
32612;DHT22;19030;49.478;8.986;2023-07-13T00:40:49;16.80;99.90
32612;DHT22;19030;49.478;8.986;2023-07-13T00:42:52;16.80;99.90
32612;DHT22;19030;49.478;8.986;2023-07-13T00:47:11;16.70;99.90
32612;DHT22;19030;49.478;8.986;2023-07-13T00:49:15;16.70;99.90
32612;DHT22;19030;49.478;8.986;2023-07-13T00:51:27;16.60;99.90
32612;DHT22;19030;49.478;8.986;2023-07-13T00:53:31;16.60;99.90
32612;DHT22;19030;49.478;8.986;2023-07-13T00:55:32;16.60;99.90
32612;DHT22;19030;49.478;8.986;2023-07-13T00:57:33;16.60;99.90
32612;DHT22;19030;49.478;8.986;2023-07-13T00:59:35;16.50;99.90
32612;DHT22;19030;49.478;8.986;2023-07-13T01:01:36;16.50;99.90
32612;DHT22;19030;49.478;8.986;2023-07-13T01:03:37;16.50;99.90
32612;DHT22;19030;49.478;8.986;2023-07-13T01:05:38;16.50;99.90
32612;DHT22;19030;49.478;8.986;2023-07-13T01:07:40;16.40;99.90
32612;DHT22;19030;49.478;8.986;2023-07-13T01:09:42;16.40;99.90
32612;DHT22;19030;49.478;8.986;2023-07-13T01:11:42;16.40;99.90
32612;DHT22;19030;49.478;8.986;2023-07-13T01:13:45;16.40;99.90
32612;DHT22;19030;49.478;8.986;2023-07-13T01:15:47;16.30;99.90
32612;DHT22;19030;49.478;8.986;2023-07-13T01:17:48;16.30;99.90
32612;DHT22;19030;49.478;8.986;2023-07-13T01:19:49;16.20;99.90
32612;DHT22;19030;49.478;8.986;2023-07-13T01:21:51;16.20;99.90
32612;DHT22;19030;49.478;8.986;2023-07-13T01:23:52;16.20;99.90
32612;DHT22;19030;49.478;8.986;2023-07-13T01:25:53;16.10;99.90
32612;DHT22;19030;49.478;8.986;2023-07-13T01:27:55;16.00;99.90
32612;DHT22;19030;49.478;8.986;2023-07-13T01:29:55;16.00;99.90
32612;DHT22;19030;49.478;8.986;2023-07-13T01:32:02;16.00;99.90
32612;DHT22;19030;49.478;8.986;2023-07-13T01:34:03;15.90;99.90
32612;DHT22;19030;49.478;8.986;2023-07-13T01:36:03;15.90;99.90
32612;DHT22;19030;49.478;8.986;2023-07-13T01:38:04;15.90;99.90
32612;DHT22;19030;49.478;8.986;2023-07-13T01:40:06;15.80;99.90
32612;DHT22;19030;49.478;8.986;2023-07-13T01:42:09;15.70;99.90
32612;DHT22;19030;49.478;8.986;2023-07-13T01:44:09;15.70;99.90
32612;DHT22;19030;49.478;8.986;2023-07-13T01:46:10;15.70;99.90
32612;DHT22;19030;49.478;8.986;2023-07-13T01:48:11;15.60;99.90
32612;DHT22;19030;49.478;8.986;2023-07-13T01:50:11;15.60;99.90
32612;DHT22;19030;49.478;8.986;2023-07-13T01:52:12;15.60;99.90
32612;DHT22;19030;49.478;8.986;2023-07-13T01:54:13;15.60;99.90
32612;DHT22;19030;49.478;8.986;2023-07-13T01:56:13;15.60;99.90
32612;DHT22;19030;49.478;8.986;2023-07-13T01:58:14;15.60;99.90
32612;DHT22;19030;49.478;8.986;2023-07-13T02:00:14;15.50;99.90
32612;DHT22;19030;49.478;8.986;2023-07-13T02:02:21;15.50;99.90
32612;DHT22;19030;49.478;8.986;2023-07-13T02:04:21;15.50;99.90
32612;DHT22;19030;49.478;8.986;2023-07-13T02:06:22;15.50;99.90
32612;DHT22;19030;49.478;8.986;2023-07-13T02:08:22;15.40;99.90
32612;DHT22;19030;49.478;8.986;2023-07-13T02:10:23;15.40;99.90
32612;DHT22;19030;49.478;8.986;2023-07-13T02:12:24;15.40;99.90
32612;DHT22;19030;49.478;8.986;2023-07-13T02:14:24;15.30;99.90
32612;DHT22;19030;49.478;8.986;2023-07-13T02:16:25;15.30;99.90
32612;DHT22;19030;49.478;8.986;2023-07-13T02:18:25;15.20;99.90
32612;DHT22;19030;49.478;8.986;2023-07-13T02:20:26;15.20;99.90
32612;DHT22;19030;49.478;8.986;2023-07-13T02:22:26;15.10;99.90
32612;DHT22;19030;49.478;8.986;2023-07-13T02:24:27;15.10;99.90
32612;DHT22;19030;49.478;8.986;2023-07-13T02:26:28;15.10;99.90
32612;DHT22;19030;49.478;8.986;2023-07-13T02:28:28;15.10;99.90
32612;DHT22;19030;49.478;8.986;2023-07-13T02:30:30;15.10;99.90
32612;DHT22;19030;49.478;8.986;2023-07-13T02:32:31;15.00;99.90
32612;DHT22;19030;49.478;8.986;2023-07-13T02:34:31;15.00;99.90
32612;DHT22;19030;49.478;8.986;2023-07-13T02:36:32;15.00;99.90
32612;DHT22;19030;49.478;8.986;2023-07-13T02:38:33;14.90;99.90
32612;DHT22;19030;49.478;8.986;2023-07-13T02:40:36;14.90;99.90
32612;DHT22;19030;49.478;8.986;2023-07-13T02:42:37;14.80;99.90
32612;DHT22;19030;49.478;8.986;2023-07-13T02:44:37;14.80;99.90
32612;DHT22;19030;49.478;8.986;2023-07-13T02:46:38;14.80;99.90
32612;DHT22;19030;49.478;8.986;2023-07-13T02:48:39;14.80;99.90
32612;DHT22;19030;49.478;8.986;2023-07-13T02:50:40;14.70;99.90
32612;DHT22;19030;49.478;8.986;2023-07-13T02:52:40;14.70;99.90
32612;DHT22;19030;49.478;8.986;2023-07-13T02:54:41;14.70;99.90
32612;DHT22;19030;49.478;8.986;2023-07-13T02:56:42;14.60;99.90
32612;DHT22;19030;49.478;8.986;2023-07-13T02:58:44;14.60;99.90
32612;DHT22;19030;49.478;8.986;2023-07-13T03:00:45;14.60;99.90
32612;DHT22;19030;49.478;8.986;2023-07-13T03:02:46;14.60;99.90
32612;DHT22;19030;49.478;8.986;2023-07-13T03:04:47;14.60;99.90
32612;DHT22;19030;49.478;8.986;2023-07-13T03:06:48;14.50;99.90
32612;DHT22;19030;49.478;8.986;2023-07-13T03:08:49;14.50;99.90
32612;DHT22;19030;49.478;8.986;2023-07-13T03:10:59;14.50;99.90
32612;DHT22;19030;49.478;8.986;2023-07-13T03:13:01;14.40;99.90
32612;DHT22;19030;49.478;8.986;2023-07-13T03:15:03;14.50;99.90
32612;DHT22;19030;49.478;8.986;2023-07-13T03:17:04;14.40;99.90
32612;DHT22;19030;49.478;8.986;2023-07-13T03:19:08;14.40;99.90
32612;DHT22;19030;49.478;8.986;2023-07-13T03:21:10;14.40;99.90
32612;DHT22;19030;49.478;8.986;2023-07-13T03:23:10;14.40;99.90
32612;DHT22;19030;49.478;8.986;2023-07-13T03:25:12;14.40;99.90
32612;DHT22;19030;49.478;8.986;2023-07-13T03:27:12;14.30;99.90
32612;DHT22;19030;49.478;8.986;2023-07-13T03:29:16;14.30;99.90
32612;DHT22;19030;49.478;8.986;2023-07-13T03:31:24;14.30;99.90
32612;DHT22;19030;49.478;8.986;2023-07-13T03:33:25;14.30;99.90
32612;DHT22;19030;49.478;8.986;2023-07-13T03:35:26;14.30;99.90
32612;DHT22;19030;49.478;8.986;2023-07-13T03:37:26;14.30;99.90
32612;DHT22;19030;49.478;8.986;2023-07-13T03:39:27;14.30;99.90
32612;DHT22;19030;49.478;8.986;2023-07-13T03:41:32;14.30;99.90
32612;DHT22;19030;49.478;8.986;2023-07-13T03:43:33;14.30;99.90
32612;DHT22;19030;49.478;8.986;2023-07-13T03:45:33;14.30;99.90
32612;DHT22;19030;49.478;8.986;2023-07-13T03:47:34;14.40;99.90
32612;DHT22;19030;49.478;8.986;2023-07-13T03:49:37;14.30;99.90
32612;DHT22;19030;49.478;8.986;2023-07-13T03:51:38;14.40;99.90
32612;DHT22;19030;49.478;8.986;2023-07-13T03:53:40;14.40;99.90
32612;DHT22;19030;49.478;8.986;2023-07-13T03:55:42;14.40;99.90
32612;DHT22;19030;49.478;8.986;2023-07-13T03:57:42;14.40;99.90
32612;DHT22;19030;49.478;8.986;2023-07-13T03:59:43;14.50;99.90
32612;DHT22;19030;49.478;8.986;2023-07-13T04:01:44;14.50;99.90
32612;DHT22;19030;49.478;8.986;2023-07-13T04:03:47;14.50;99.90
32612;DHT22;19030;49.478;8.986;2023-07-13T04:05:48;14.60;99.90
32612;DHT22;19030;49.478;8.986;2023-07-13T04:07:48;14.60;99.90
32612;DHT22;19030;49.478;8.986;2023-07-13T04:09:49;14.60;99.90
32612;DHT22;19030;49.478;8.986;2023-07-13T04:11:50;14.70;99.90
32612;DHT22;19030;49.478;8.986;2023-07-13T04:13:51;14.70;99.90
32612;DHT22;19030;49.478;8.986;2023-07-13T04:15:52;14.70;99.90
32612;DHT22;19030;49.478;8.986;2023-07-13T04:17:53;14.70;99.90
32612;DHT22;19030;49.478;8.986;2023-07-13T04:19:53;14.70;99.90
32612;DHT22;19030;49.478;8.986;2023-07-13T04:21:54;14.80;99.90
32612;DHT22;19030;49.478;8.986;2023-07-13T04:23:55;14.70;99.90
32612;DHT22;19030;49.478;8.986;2023-07-13T04:25:55;14.80;99.90
32612;DHT22;19030;49.478;8.986;2023-07-13T04:27:56;14.80;99.90
32612;DHT22;19030;49.478;8.986;2023-07-13T04:29:57;14.80;99.90
32612;DHT22;19030;49.478;8.986;2023-07-13T04:31:57;14.80;99.90
32612;DHT22;19030;49.478;8.986;2023-07-13T04:33:58;14.80;99.90
32612;DHT22;19030;49.478;8.986;2023-07-13T04:35:58;14.80;99.90
32612;DHT22;19030;49.478;8.986;2023-07-13T04:37:59;14.80;99.90
32612;DHT22;19030;49.478;8.986;2023-07-13T04:40:00;14.80;99.90
32612;DHT22;19030;49.478;8.986;2023-07-13T04:42:00;14.80;99.90
32612;DHT22;19030;49.478;8.986;2023-07-13T04:44:01;14.80;99.90
32612;DHT22;19030;49.478;8.986;2023-07-13T04:46:05;14.90;99.90
32612;DHT22;19030;49.478;8.986;2023-07-13T04:48:06;14.90;99.90
32612;DHT22;19030;49.478;8.986;2023-07-13T04:50:08;14.90;99.90
32612;DHT22;19030;49.478;8.986;2023-07-13T04:52:09;15.00;99.90
32612;DHT22;19030;49.478;8.986;2023-07-13T04:54:09;15.00;99.90
32612;DHT22;19030;49.478;8.986;2023-07-13T04:56:10;15.10;99.90
32612;DHT22;19030;49.478;8.986;2023-07-13T04:58:11;15.20;99.90
32612;DHT22;19030;49.478;8.986;2023-07-13T05:00:12;15.30;99.90
32612;DHT22;19030;49.478;8.986;2023-07-13T05:02:13;15.40;99.90
32612;DHT22;19030;49.478;8.986;2023-07-13T05:04:13;15.60;99.90
32612;DHT22;19030;49.478;8.986;2023-07-13T05:06:14;15.70;99.90
32612;DHT22;19030;49.478;8.986;2023-07-13T05:08:14;15.70;99.90
32612;DHT22;19030;49.478;8.986;2023-07-13T05:10:15;15.90;99.90
32612;DHT22;19030;49.478;8.986;2023-07-13T05:12:16;16.00;99.90
32612;DHT22;19030;49.478;8.986;2023-07-13T05:14:16;16.20;99.90
32612;DHT22;19030;49.478;8.986;2023-07-13T05:16:17;16.30;99.90
32612;DHT22;19030;49.478;8.986;2023-07-13T05:18:17;16.50;99.90
32612;DHT22;19030;49.478;8.986;2023-07-13T05:20:18;16.60;99.90
32612;DHT22;19030;49.478;8.986;2023-07-13T05:22:19;16.70;99.90
32612;DHT22;19030;49.478;8.986;2023-07-13T05:24:20;16.80;99.90
32612;DHT22;19030;49.478;8.986;2023-07-13T05:26:20;16.90;99.90
32612;DHT22;19030;49.478;8.986;2023-07-13T05:28:21;17.00;99.90
32612;DHT22;19030;49.478;8.986;2023-07-13T05:30:22;17.10;99.90
32612;DHT22;19030;49.478;8.986;2023-07-13T05:32:22;17.20;99.90
32612;DHT22;19030;49.478;8.986;2023-07-13T05:34:23;17.30;99.90
32612;DHT22;19030;49.478;8.986;2023-07-13T05:36:25;17.50;99.90
32612;DHT22;19030;49.478;8.986;2023-07-13T05:38:26;17.60;99.90
32612;DHT22;19030;49.478;8.986;2023-07-13T05:40:26;17.80;99.90
32612;DHT22;19030;49.478;8.986;2023-07-13T05:42:27;17.90;99.90
32612;DHT22;19030;49.478;8.986;2023-07-13T05:44:27;18.00;99.90
32612;DHT22;19030;49.478;8.986;2023-07-13T05:46:28;18.00;99.90
32612;DHT22;19030;49.478;8.986;2023-07-13T05:48:28;18.10;99.90
32612;DHT22;19030;49.478;8.986;2023-07-13T05:50:29;18.20;99.90
32612;DHT22;19030;49.478;8.986;2023-07-13T05:52:30;18.20;99.90
32612;DHT22;19030;49.478;8.986;2023-07-13T05:54:30;18.30;99.90
32612;DHT22;19030;49.478;8.986;2023-07-13T05:56:31;18.40;99.90
32612;DHT22;19030;49.478;8.986;2023-07-13T05:58:31;18.60;99.90
32612;DHT22;19030;49.478;8.986;2023-07-13T06:00:32;18.60;99.90
32612;DHT22;19030;49.478;8.986;2023-07-13T06:02:34;18.80;99.90
32612;DHT22;19030;49.478;8.986;2023-07-13T06:04:34;18.90;99.90
32612;DHT22;19030;49.478;8.986;2023-07-13T06:06:35;18.90;99.90
32612;DHT22;19030;49.478;8.986;2023-07-13T06:08:36;19.00;99.90
32612;DHT22;19030;49.478;8.986;2023-07-13T06:10:37;19.00;99.90
32612;DHT22;19030;49.478;8.986;2023-07-13T06:12:38;19.00;99.90
32612;DHT22;19030;49.478;8.986;2023-07-13T06:14:38;19.10;99.90
32612;DHT22;19030;49.478;8.986;2023-07-13T06:16:40;19.20;99.90
32612;DHT22;19030;49.478;8.986;2023-07-13T06:18:42;19.40;99.90
32612;DHT22;19030;49.478;8.986;2023-07-13T06:20:43;19.50;99.90
32612;DHT22;19030;49.478;8.986;2023-07-13T06:22:44;19.70;99.90
32612;DHT22;19030;49.478;8.986;2023-07-13T06:24:44;19.90;99.90
32612;DHT22;19030;49.478;8.986;2023-07-13T06:26:45;20.00;99.90
32612;DHT22;19030;49.478;8.986;2023-07-13T06:28:45;20.10;99.90
32612;DHT22;19030;49.478;8.986;2023-07-13T06:30:46;20.20;99.80
32612;DHT22;19030;49.478;8.986;2023-07-13T06:32:46;20.20;99.90
32612;DHT22;19030;49.478;8.986;2023-07-13T06:34:47;20.20;99.90
32612;DHT22;19030;49.478;8.986;2023-07-13T06:36:47;20.40;99.90
32612;DHT22;19030;49.478;8.986;2023-07-13T06:38:48;20.60;99.90
32612;DHT22;19030;49.478;8.986;2023-07-13T06:40:49;20.80;99.90
32612;DHT22;19030;49.478;8.986;2023-07-13T06:42:49;21.10;99.90
32612;DHT22;19030;49.478;8.986;2023-07-13T06:44:50;21.80;98.50
32612;DHT22;19030;49.478;8.986;2023-07-13T06:46:50;22.70;96.40
32612;DHT22;19030;49.478;8.986;2023-07-13T06:48:51;23.20;94.50
32612;DHT22;19030;49.478;8.986;2023-07-13T06:50:52;23.40;92.10
32612;DHT22;19030;49.478;8.986;2023-07-13T06:52:53;23.60;91.40
32612;DHT22;19030;49.478;8.986;2023-07-13T06:54:53;23.70;91.40
32612;DHT22;19030;49.478;8.986;2023-07-13T06:56:54;23.70;90.50
32612;DHT22;19030;49.478;8.986;2023-07-13T06:58:55;23.60;88.60
32612;DHT22;19030;49.478;8.986;2023-07-13T07:00:55;23.50;87.70
32612;DHT22;19030;49.478;8.986;2023-07-13T07:02:56;23.60;86.00
32612;DHT22;19030;49.478;8.986;2023-07-13T07:04:56;24.10;84.50
32612;DHT22;19030;49.478;8.986;2023-07-13T07:06:57;24.80;81.90
32612;DHT22;19030;49.478;8.986;2023-07-13T07:08:58;25.60;78.80
32612;DHT22;19030;49.478;8.986;2023-07-13T07:10:59;26.50;73.90
32612;DHT22;19030;49.478;8.986;2023-07-13T07:12:59;27.40;64.60
32612;DHT22;19030;49.478;8.986;2023-07-13T07:15:00;27.70;58.60
32612;DHT22;19030;49.478;8.986;2023-07-13T07:17:00;28.00;56.00
32612;DHT22;19030;49.478;8.986;2023-07-13T07:19:01;27.80;55.30
32612;DHT22;19030;49.478;8.986;2023-07-13T07:21:02;27.70;56.20
32612;DHT22;19030;49.478;8.986;2023-07-13T07:23:03;27.70;55.40
32612;DHT22;19030;49.478;8.986;2023-07-13T07:25:03;28.10;55.10
32612;DHT22;19030;49.478;8.986;2023-07-13T07:27:04;28.70;56.20
32612;DHT22;19030;49.478;8.986;2023-07-13T07:29:05;29.10;53.20
32612;DHT22;19030;49.478;8.986;2023-07-13T07:31:05;29.60;54.70
32612;DHT22;19030;49.478;8.986;2023-07-13T07:33:06;30.00;51.20
32612;DHT22;19030;49.478;8.986;2023-07-13T07:35:07;30.20;49.00
32612;DHT22;19030;49.478;8.986;2023-07-13T07:37:11;30.20;48.20
32612;DHT22;19030;49.478;8.986;2023-07-13T07:39:12;30.00;47.00
32612;DHT22;19030;49.478;8.986;2023-07-13T07:41:13;30.00;46.60
32612;DHT22;19030;49.478;8.986;2023-07-13T07:43:14;30.20;45.70
32612;DHT22;19030;49.478;8.986;2023-07-13T07:45:14;30.20;44.90
32612;DHT22;19030;49.478;8.986;2023-07-13T07:47:15;30.20;44.70
32612;DHT22;19030;49.478;8.986;2023-07-13T07:49:16;30.10;43.90
32612;DHT22;19030;49.478;8.986;2023-07-13T07:51:16;29.90;45.00
32612;DHT22;19030;49.478;8.986;2023-07-13T07:53:17;30.00;44.40
32612;DHT22;19030;49.478;8.986;2023-07-13T07:55:18;30.00;44.00
32612;DHT22;19030;49.478;8.986;2023-07-13T07:57:18;30.00;43.80
32612;DHT22;19030;49.478;8.986;2023-07-13T07:59:19;30.00;44.10
32612;DHT22;19030;49.478;8.986;2023-07-13T08:01:19;30.10;43.40
32612;DHT22;19030;49.478;8.986;2023-07-13T08:03:20;29.50;43.70
32612;DHT22;19030;49.478;8.986;2023-07-13T08:05:21;29.10;44.20
32612;DHT22;19030;49.478;8.986;2023-07-13T08:07:21;29.10;44.80
32612;DHT22;19030;49.478;8.986;2023-07-13T08:09:22;29.20;44.60
32612;DHT22;19030;49.478;8.986;2023-07-13T08:11:22;29.20;44.30
32612;DHT22;19030;49.478;8.986;2023-07-13T08:13:23;29.00;43.90
32612;DHT22;19030;49.478;8.986;2023-07-13T08:15:24;28.80;44.00
32612;DHT22;19030;49.478;8.986;2023-07-13T08:17:25;28.80;43.80
32612;DHT22;19030;49.478;8.986;2023-07-13T08:19:25;28.80;43.70
32612;DHT22;19030;49.478;8.986;2023-07-13T08:21:26;28.70;43.70
32612;DHT22;19030;49.478;8.986;2023-07-13T08:23:26;28.50;44.10
32612;DHT22;19030;49.478;8.986;2023-07-13T08:25:27;28.40;45.20
32612;DHT22;19030;49.478;8.986;2023-07-13T08:27:28;28.60;45.30
32612;DHT22;19030;49.478;8.986;2023-07-13T08:29:29;28.80;43.80
32612;DHT22;19030;49.478;8.986;2023-07-13T08:31:32;29.20;43.80
32612;DHT22;19030;49.478;8.986;2023-07-13T08:33:34;29.30;43.50
32612;DHT22;19030;49.478;8.986;2023-07-13T08:35:35;29.70;44.30
32612;DHT22;19030;49.478;8.986;2023-07-13T08:37:36;30.00;41.80
32612;DHT22;19030;49.478;8.986;2023-07-13T08:39:36;30.10;42.10
32612;DHT22;19030;49.478;8.986;2023-07-13T08:41:37;30.20;42.20
32612;DHT22;19030;49.478;8.986;2023-07-13T08:43:38;30.10;41.90
32612;DHT22;19030;49.478;8.986;2023-07-13T08:45:45;30.10;42.20
32612;DHT22;19030;49.478;8.986;2023-07-13T08:48:14;30.60;42.10
32612;DHT22;19030;49.478;8.986;2023-07-13T08:50:21;30.80;40.70
32612;DHT22;19030;49.478;8.986;2023-07-13T08:52:38;30.90;41.90
32612;DHT22;19030;49.478;8.986;2023-07-13T08:54:43;31.40;39.90
32612;DHT22;19030;49.478;8.986;2023-07-13T08:56:45;32.10;39.30
32612;DHT22;19030;49.478;8.986;2023-07-13T08:58:51;32.80;39.10
32612;DHT22;19030;49.478;8.986;2023-07-13T09:03:26;33.10;37.90
32612;DHT22;19030;49.478;8.986;2023-07-13T09:05:35;32.70;37.40
32612;DHT22;19030;49.478;8.986;2023-07-13T09:08:01;32.20;38.20
32612;DHT22;19030;49.478;8.986;2023-07-13T09:10:20;32.00;37.70
32612;DHT22;19030;49.478;8.986;2023-07-13T09:12:36;31.30;38.80
32612;DHT22;19030;49.478;8.986;2023-07-13T09:14:50;30.30;40.60
32612;DHT22;19030;49.478;8.986;2023-07-13T09:16:53;30.40;40.80
32612;DHT22;19030;49.478;8.986;2023-07-13T09:18:59;31.20;40.20
32612;DHT22;19030;49.478;8.986;2023-07-13T09:21:14;31.60;39.20
32612;DHT22;19030;49.478;8.986;2023-07-13T09:23:20;32.20;37.90
32612;DHT22;19030;49.478;8.986;2023-07-13T09:25:31;32.20;37.90
32612;DHT22;19030;49.478;8.986;2023-07-13T09:27:39;31.70;37.70
32612;DHT22;19030;49.478;8.986;2023-07-13T09:29:42;31.30;39.60
32612;DHT22;19030;49.478;8.986;2023-07-13T09:31:49;31.40;39.20
32612;DHT22;19030;49.478;8.986;2023-07-13T09:33:52;30.90;39.00
32612;DHT22;19030;49.478;8.986;2023-07-13T09:35:52;30.80;39.20
32612;DHT22;19030;49.478;8.986;2023-07-13T09:37:57;31.30;39.00
32612;DHT22;19030;49.478;8.986;2023-07-13T09:39:59;31.50;38.10
32612;DHT22;19030;49.478;8.986;2023-07-13T09:42:07;32.40;37.20
32612;DHT22;19030;49.478;8.986;2023-07-13T09:44:15;33.10;36.90
32612;DHT22;19030;49.478;8.986;2023-07-13T09:46:22;33.80;36.40
32612;DHT22;19030;49.478;8.986;2023-07-13T09:48:23;33.90;36.30
32612;DHT22;19030;49.478;8.986;2023-07-13T09:50:25;34.10;35.40
32612;DHT22;19030;49.478;8.986;2023-07-13T09:52:26;34.10;34.90
32612;DHT22;19030;49.478;8.986;2023-07-13T09:54:34;33.10;36.60
32612;DHT22;19030;49.478;8.986;2023-07-13T09:56:35;32.00;38.80
32612;DHT22;19030;49.478;8.986;2023-07-13T09:58:36;31.70;39.90
32612;DHT22;19030;49.478;8.986;2023-07-13T10:00:37;31.00;38.70
32612;DHT22;19030;49.478;8.986;2023-07-13T10:02:39;30.40;39.80
32612;DHT22;19030;49.478;8.986;2023-07-13T10:04:39;29.70;40.80
32612;DHT22;19030;49.478;8.986;2023-07-13T10:06:41;28.80;42.20
32612;DHT22;19030;49.478;8.986;2023-07-13T10:08:45;28.40;43.80
32612;DHT22;19030;49.478;8.986;2023-07-13T10:10:52;28.80;43.30
32612;DHT22;19030;49.478;8.986;2023-07-13T10:12:54;29.10;42.50
32612;DHT22;19030;49.478;8.986;2023-07-13T10:14:57;29.00;43.40
32612;DHT22;19030;49.478;8.986;2023-07-13T10:17:02;29.00;44.30
32612;DHT22;19030;49.478;8.986;2023-07-13T10:19:14;29.20;43.60
32612;DHT22;19030;49.478;8.986;2023-07-13T10:21:21;28.90;43.20
32612;DHT22;19030;49.478;8.986;2023-07-13T10:23:23;28.80;43.50
32612;DHT22;19030;49.478;8.986;2023-07-13T10:25:27;29.20;43.40
32612;DHT22;19030;49.478;8.986;2023-07-13T10:27:33;29.60;43.80
32612;DHT22;19030;49.478;8.986;2023-07-13T10:29:37;29.40;42.30
32612;DHT22;19030;49.478;8.986;2023-07-13T10:31:39;29.10;42.20
32612;DHT22;19030;49.478;8.986;2023-07-13T10:33:40;29.00;43.00
32612;DHT22;19030;49.478;8.986;2023-07-13T10:35:43;28.80;42.80
32612;DHT22;19030;49.478;8.986;2023-07-13T10:38:06;28.70;43.50
32612;DHT22;19030;49.478;8.986;2023-07-13T10:40:14;28.90;43.30
32612;DHT22;19030;49.478;8.986;2023-07-13T10:42:37;29.20;42.60
32612;DHT22;19030;49.478;8.986;2023-07-13T10:44:38;29.70;41.80
32612;DHT22;19030;49.478;8.986;2023-07-13T10:46:39;30.00;41.70
32612;DHT22;19030;49.478;8.986;2023-07-13T10:48:43;29.90;41.60
32612;DHT22;19030;49.478;8.986;2023-07-13T10:50:46;29.90;41.70
32612;DHT22;19030;49.478;8.986;2023-07-13T10:52:50;29.70;41.70
32612;DHT22;19030;49.478;8.986;2023-07-13T10:54:51;29.60;41.50
32612;DHT22;19030;49.478;8.986;2023-07-13T10:57:24;29.40;42.10
32612;DHT22;19030;49.478;8.986;2023-07-13T10:59:26;28.70;42.90
32612;DHT22;19030;49.478;8.986;2023-07-13T11:01:40;28.20;44.40
32612;DHT22;19030;49.478;8.986;2023-07-13T11:05:49;28.50;43.70
32612;DHT22;19030;49.478;8.986;2023-07-13T11:07:54;28.10;44.10
32612;DHT22;19030;49.478;8.986;2023-07-13T11:10:03;27.80;45.10
32612;DHT22;19030;49.478;8.986;2023-07-13T11:14:30;27.80;45.20
32612;DHT22;19030;49.478;8.986;2023-07-13T11:18:49;28.10;44.60
32612;DHT22;19030;49.478;8.986;2023-07-13T11:20:51;28.30;43.80
32612;DHT22;19030;49.478;8.986;2023-07-13T11:25:31;27.90;43.50
32612;DHT22;19030;49.478;8.986;2023-07-13T11:27:37;27.70;44.30
32612;DHT22;19030;49.478;8.986;2023-07-13T11:29:38;27.40;44.70
32612;DHT22;19030;49.478;8.986;2023-07-13T11:31:39;27.50;44.80
32612;DHT22;19030;49.478;8.986;2023-07-13T11:35:59;28.70;43.90
32612;DHT22;19030;49.478;8.986;2023-07-13T11:38:01;28.90;42.60
32612;DHT22;19030;49.478;8.986;2023-07-13T11:40:02;28.30;43.90
32612;DHT22;19030;49.478;8.986;2023-07-13T11:42:13;28.00;44.20
32612;DHT22;19030;49.478;8.986;2023-07-13T11:44:26;28.50;44.50
32612;DHT22;19030;49.478;8.986;2023-07-13T11:46:28;28.90;45.30
32612;DHT22;19030;49.478;8.986;2023-07-13T11:48:29;29.70;43.80
32612;DHT22;19030;49.478;8.986;2023-07-13T11:50:31;30.40;41.80
32612;DHT22;19030;49.478;8.986;2023-07-13T11:52:35;30.60;40.60
32612;DHT22;19030;49.478;8.986;2023-07-13T11:54:47;30.50;41.50
32612;DHT22;19030;49.478;8.986;2023-07-13T11:56:58;30.40;41.40
32612;DHT22;19030;49.478;8.986;2023-07-13T11:59:06;30.10;41.30
32612;DHT22;19030;49.478;8.986;2023-07-13T12:01:20;29.50;42.50
32612;DHT22;19030;49.478;8.986;2023-07-13T12:03:22;28.90;43.10
32612;DHT22;19030;49.478;8.986;2023-07-13T12:05:24;28.60;44.40
32612;DHT22;19030;49.478;8.986;2023-07-13T12:07:28;28.90;44.20
32612;DHT22;19030;49.478;8.986;2023-07-13T12:09:29;29.20;43.40
32612;DHT22;19030;49.478;8.986;2023-07-13T12:11:34;29.20;42.40
32612;DHT22;19030;49.478;8.986;2023-07-13T12:13:37;29.00;41.90
32612;DHT22;19030;49.478;8.986;2023-07-13T12:15:42;29.50;42.00
32612;DHT22;19030;49.478;8.986;2023-07-13T12:17:43;29.50;40.30
32612;DHT22;19030;49.478;8.986;2023-07-13T12:19:44;29.90;41.60
32612;DHT22;19030;49.478;8.986;2023-07-13T12:21:47;30.50;41.00
32612;DHT22;19030;49.478;8.986;2023-07-13T12:23:49;31.10;38.70
32612;DHT22;19030;49.478;8.986;2023-07-13T12:25:51;31.00;40.00
32612;DHT22;19030;49.478;8.986;2023-07-13T12:27:51;30.80;38.50
32612;DHT22;19030;49.478;8.986;2023-07-13T12:29:58;30.30;38.50
32612;DHT22;19030;49.478;8.986;2023-07-13T12:31:59;29.80;38.90
32612;DHT22;19030;49.478;8.986;2023-07-13T12:34:09;29.50;39.70
32612;DHT22;19030;49.478;8.986;2023-07-13T12:36:12;28.90;40.40
32612;DHT22;19030;49.478;8.986;2023-07-13T12:38:13;29.10;41.70
32612;DHT22;19030;49.478;8.986;2023-07-13T12:40:19;29.80;39.40
32612;DHT22;19030;49.478;8.986;2023-07-13T12:42:27;30.00;38.30
32612;DHT22;19030;49.478;8.986;2023-07-13T12:44:30;29.70;38.80
32612;DHT22;19030;49.478;8.986;2023-07-13T12:46:31;29.40;38.40
32612;DHT22;19030;49.478;8.986;2023-07-13T12:48:39;28.90;40.20
32612;DHT22;19030;49.478;8.986;2023-07-13T12:50:48;28.70;43.30
32612;DHT22;19030;49.478;8.986;2023-07-13T12:52:55;28.50;42.30
32612;DHT22;19030;49.478;8.986;2023-07-13T12:57:29;27.90;41.30
32612;DHT22;19030;49.478;8.986;2023-07-13T12:59:32;27.70;41.10
32612;DHT22;19030;49.478;8.986;2023-07-13T13:01:35;27.50;41.50
32612;DHT22;19030;49.478;8.986;2023-07-13T13:03:39;27.50;42.40
32612;DHT22;19030;49.478;8.986;2023-07-13T13:05:41;27.50;41.90
32612;DHT22;19030;49.478;8.986;2023-07-13T13:07:43;27.60;42.00
32612;DHT22;19030;49.478;8.986;2023-07-13T13:09:46;27.90;42.40
32612;DHT22;19030;49.478;8.986;2023-07-13T13:11:47;28.30;41.60